createdAt,value
2023-05-08T00:04:00.823Z,7.33
2023-05-08T00:09:03.739Z,7.73
2023-05-08T00:14:07.872Z,7.43
2023-05-08T00:19:10.567Z,7.93
2023-05-08T00:24:13.238Z,7.67
2023-05-08T00:29:17.217Z,8.20
2023-05-08T00:34:20.161Z,9.23
2023-05-08T00:39:22.795Z,12.50
2023-05-08T00:44:26.870Z,8.47
2023-05-08T00:49:29.622Z,7.83
2023-05-08T00:54:32.632Z,8.63
2023-05-08T00:59:37.714Z,8.20
2023-05-08T01:04:41.611Z,8.57
2023-05-08T01:09:44.248Z,10.20
2023-05-08T01:15:05.215Z,9.13
2023-05-08T01:20:20.112Z,10.57
2023-05-08T01:25:47.280Z,8.80
2023-05-08T01:31:09.043Z,12.00
2023-05-08T01:36:21.943Z,10.87
2023-05-08T01:41:28.344Z,8.73
2023-05-08T01:46:34.622Z,8.80
2023-05-08T01:51:42.594Z,9.33
2023-05-08T01:56:48.647Z,10.10
2023-05-08T02:01:54.860Z,11.20
2023-05-08T02:06:59.776Z,9.90
2023-05-08T02:12:03.857Z,9.37
2023-05-08T02:17:09.353Z,8.83
2023-05-08T02:22:16.090Z,9.50
2023-05-08T02:27:19.570Z,10.30
2023-05-08T02:32:24.112Z,8.87
2023-05-08T02:37:29.328Z,9.30
2023-05-08T02:42:32.118Z,10.93
2023-05-08T02:47:44.338Z,9.73
2023-05-08T02:52:51.704Z,11.20
2023-05-08T02:58:04.001Z,9.40
2023-05-08T03:03:13.120Z,11.33
2023-05-08T03:08:21.654Z,11.97
2023-05-08T03:13:24.705Z,14.50
2023-05-08T03:18:31.849Z,10.43
2023-05-08T03:23:37.895Z,11.73
2023-05-08T03:28:41.124Z,12.57
2023-05-08T03:33:44.989Z,13.07
2023-05-08T03:38:49.860Z,12.80
2023-05-08T03:43:52.731Z,13.53
2023-05-08T03:48:55.703Z,10.20
2023-05-08T03:53:59.712Z,12.43
2023-05-08T03:59:14.668Z,12.90
2023-05-08T04:04:20.022Z,11.50
2023-05-08T04:09:28.958Z,11.30
2023-05-08T04:14:37.496Z,9.07
2023-05-08T04:19:46.115Z,9.57
2023-05-08T04:24:52.277Z,7.87
2023-05-08T04:29:56.365Z,9.20
2023-05-08T04:35:00.279Z,9.63
2023-05-08T04:40:05.196Z,9.47
2023-05-08T04:45:08.734Z,8.27
2023-05-08T04:50:12.341Z,8.13
2023-05-08T04:55:16.492Z,7.50
2023-05-08T05:00:20.068Z,6.63
2023-05-08T05:05:22.776Z,7.30
2023-05-08T05:10:26.757Z,8.33
2023-05-08T05:15:29.464Z,9.07
2023-05-08T05:20:32.524Z,6.40
2023-05-08T05:25:37.662Z,5.20
2023-05-08T05:30:40.741Z,6.00
2023-05-08T05:35:43.387Z,4.77
2023-05-08T05:40:47.345Z,5.47
2023-05-08T05:45:50.072Z,3.87
2023-05-08T05:50:52.723Z,6.43
2023-05-08T05:55:56.957Z,3.90
2023-05-08T06:01:01.304Z,3.70
2023-05-08T06:06:04.569Z,7.43
2023-05-08T06:11:08.692Z,3.03
2023-05-08T06:16:11.929Z,3.30
2023-05-08T06:21:14.672Z,8.70
2023-05-08T06:26:18.663Z,4.63
2023-05-08T06:31:21.654Z,6.00
2023-05-08T06:36:24.371Z,4.33
2023-05-08T06:41:28.319Z,3.97
2023-05-08T06:46:31.011Z,7.23
2023-05-08T06:51:35.495Z,4.00
2023-05-08T06:56:39.472Z,4.13
2023-05-08T07:01:42.632Z,3.33
2023-05-08T07:06:45.306Z,4.20
2023-05-08T07:11:49.257Z,5.40
2023-05-08T07:16:51.889Z,3.00
2023-05-08T07:21:54.579Z,3.87
2023-05-08T07:26:59.621Z,3.60
2023-05-08T07:32:02.338Z,4.57
2023-05-08T07:37:05.045Z,3.47
2023-05-08T07:42:09.179Z,3.10
2023-05-08T07:47:12.549Z,5.40
2023-05-08T07:52:15.251Z,4.05
2023-05-08T07:57:19.234Z,3.65
2023-05-08T08:02:21.926Z,2.95
2023-05-08T08:07:24.723Z,1.40
2023-05-08T08:12:29.268Z,2.95
2023-05-08T08:17:32.107Z,4.15
2023-05-08T08:22:36.479Z,2.35
2023-05-08T08:27:40.566Z,2.08
2023-05-08T08:32:43.306Z,3.47
2023-05-08T08:37:46.031Z,4.85
2023-05-08T08:42:50.072Z,2.20
2023-05-08T08:47:53.938Z,1.83
2023-05-08T08:53:02.000Z,2.72
2023-05-08T08:58:14.591Z,1.45
2023-05-08T09:03:17.534Z,2.50
2023-05-08T09:08:20.377Z,2.05
2023-05-08T09:13:24.530Z,1.80
2023-05-08T09:18:27.490Z,1.15
2023-05-08T09:23:30.167Z,3.38
2023-05-08T09:28:34.164Z,2.55
2023-05-08T09:33:45.536Z,1.13
2023-05-08T09:38:48.168Z,1.40
2023-05-08T09:44:02.896Z,2.00
2023-05-08T09:49:05.557Z,1.52
2023-05-08T09:54:18.895Z,1.40
2023-05-08T09:59:28.231Z,1.10
2023-05-08T10:04:34.256Z,1.60
2023-05-08T10:09:49.868Z,1.00
2023-05-08T10:14:55.234Z,2.03
2023-05-08T10:20:01.913Z,1.00
2023-05-08T10:25:08.725Z,1.75
2023-05-08T10:30:17.107Z,2.45
2023-05-08T10:35:20.137Z,1.50
2023-05-08T10:40:23.675Z,1.25
2023-05-08T10:45:29.793Z,1.23
2023-05-08T10:50:43.265Z,2.20
2023-05-08T10:55:48.503Z,2.55
2023-05-08T11:01:17.806Z,1.52
2023-05-08T11:06:44.289Z,1.92
2023-05-08T11:11:55.681Z,1.35
2023-05-08T11:17:08.340Z,2.38
2023-05-08T11:22:23.531Z,2.42
2023-05-08T11:27:33.767Z,1.52
2023-05-08T11:33:06.955Z,1.77
2023-05-08T11:38:17.261Z,1.10
2023-05-08T11:43:27.945Z,1.65
2023-05-08T11:48:32.412Z,1.33
2023-05-08T11:53:36.930Z,3.58
2023-05-08T11:58:39.577Z,3.22
2023-05-08T12:03:43.683Z,1.63
2023-05-08T12:08:46.456Z,1.60
2023-05-08T12:13:51.601Z,2.90
2023-05-08T12:18:58.081Z,5.07
2023-05-08T12:24:01.414Z,2.20
2023-05-08T12:29:07.346Z,2.95
2023-05-08T12:34:11.491Z,1.08
2023-05-08T12:39:15.886Z,1.33
2023-05-08T12:44:23.518Z,0.93
2023-05-08T12:49:31.821Z,2.00
2023-05-08T12:54:39.750Z,1.73
2023-05-08T12:59:43.112Z,1.27
2023-05-08T13:04:47.466Z,1.17
2023-05-08T13:10:09.091Z,1.98
2023-05-08T13:15:11.971Z,3.47
2023-05-08T13:20:16.522Z,2.97
2023-05-08T13:25:19.336Z,1.67
2023-05-08T13:30:22.889Z,2.72
2023-05-08T13:35:28.366Z,3.35
2023-05-08T13:40:31.298Z,1.58
2023-05-08T13:45:34.013Z,2.33
2023-05-08T13:50:38.047Z,1.98
2023-05-08T13:55:42.238Z,1.80
2023-05-08T14:00:45.410Z,5.00
2023-05-08T14:05:49.397Z,3.83
2023-05-08T14:10:52.595Z,2.97
2023-05-08T14:15:55.388Z,3.88
2023-05-08T14:20:59.350Z,5.20
2023-05-08T14:26:02.072Z,3.45
2023-05-08T14:31:04.820Z,5.10
2023-05-08T14:36:09.982Z,2.53
2023-05-08T14:41:12.676Z,3.17
2023-05-08T14:46:15.408Z,5.47
2023-05-08T14:51:19.620Z,6.45
2023-05-08T14:56:24.497Z,2.97
2023-05-08T15:01:27.596Z,4.20
2023-05-08T15:06:32.893Z,7.85
2023-05-08T15:11:35.690Z,4.63
2023-05-08T15:16:38.491Z,3.95
2023-05-08T15:21:42.995Z,2.78
2023-05-08T15:26:45.742Z,4.63
2023-05-08T15:31:48.522Z,4.53
2023-05-08T15:36:52.555Z,5.28
2023-05-08T15:41:55.308Z,2.60
2023-05-08T15:46:58.074Z,5.25
2023-05-08T15:52:02.078Z,3.60
2023-05-08T15:57:04.940Z,5.57
2023-05-08T16:02:08.529Z,3.25
2023-05-08T16:07:12.610Z,6.53
2023-05-08T16:12:15.341Z,5.80
2023-05-08T16:17:18.262Z,2.35
2023-05-08T16:22:23.133Z,5.28
2023-05-08T16:27:25.790Z,5.32
2023-05-08T16:32:28.514Z,3.22
2023-05-08T16:37:32.603Z,3.70
2023-05-08T16:42:35.514Z,6.53
2023-05-08T16:47:38.232Z,4.50
2023-05-08T16:52:42.206Z,5.35
2023-05-08T16:57:44.839Z,5.63
2023-05-08T17:02:47.619Z,4.18
2023-05-08T17:07:51.861Z,3.85
2023-05-08T17:12:54.548Z,3.20
2023-05-08T17:17:57.386Z,4.75
2023-05-08T17:23:01.470Z,3.22
2023-05-08T17:28:05.011Z,2.70
2023-05-08T17:33:08.041Z,6.18
2023-05-08T17:38:12.074Z,4.55
2023-05-08T17:43:14.769Z,5.10
2023-05-08T17:48:17.422Z,4.45
2023-05-08T17:53:21.415Z,6.80
2023-05-08T17:58:24.114Z,7.28
2023-05-08T18:03:26.912Z,8.05
2023-05-08T18:08:30.951Z,5.00
2023-05-08T18:13:34.696Z,8.98
2023-05-08T18:18:37.393Z,7.22
2023-05-08T18:23:41.417Z,5.30
2023-05-08T18:28:45.065Z,6.85
2023-05-08T18:33:47.858Z,6.25
2023-05-08T18:38:51.858Z,5.28
2023-05-08T18:43:54.616Z,5.05
2023-05-08T18:48:57.299Z,14.32
2023-05-08T18:54:01.542Z,9.93
2023-05-08T18:59:04.292Z,6.95
2023-05-08T19:04:07.083Z,6.97
2023-05-08T19:09:11.245Z,6.95
2023-05-08T19:14:14.269Z,7.32
2023-05-08T19:19:16.953Z,6.25
2023-05-08T19:24:24.041Z,6.57
2023-05-08T19:29:26.914Z,5.72
2023-05-08T19:34:32.125Z,9.02
2023-05-08T19:39:38.222Z,6.82
2023-05-08T19:44:40.988Z,6.07
2023-05-08T19:49:43.811Z,10.65
2023-05-08T19:54:47.858Z,9.00
2023-05-08T19:59:50.600Z,6.10
2023-05-08T20:05:21.091Z,8.02
2023-05-08T20:10:17.324Z,7.63
2023-05-08T20:15:20.539Z,10.07
2023-05-08T20:20:23.469Z,6.25
2023-05-08T20:25:27.670Z,9.55
2023-05-08T20:30:30.360Z,7.20
2023-05-08T20:35:33.460Z,7.78
2023-05-08T20:40:37.628Z,8.80
2023-05-08T20:45:40.331Z,6.82
2023-05-08T20:50:43.021Z,13.23
2023-05-08T20:55:47.008Z,8.73
2023-05-08T21:00:49.825Z,7.00
2023-05-08T21:05:52.676Z,7.13
2023-05-08T21:10:56.770Z,8.25
2023-05-08T21:15:59.497Z,6.82
2023-05-08T21:21:02.176Z,7.03
2023-05-08T21:26:06.320Z,8.45
2023-05-08T21:31:09.054Z,7.18
2023-05-08T21:36:11.698Z,6.63
2023-05-08T21:41:15.838Z,8.07
2023-05-08T21:46:18.554Z,6.07
2023-05-08T21:51:21.410Z,5.43
2023-05-08T21:56:25.626Z,6.00
2023-05-08T22:01:28.340Z,4.90
2023-05-08T22:06:31.543Z,8.43
2023-05-08T22:11:35.567Z,7.03
2023-05-08T22:16:38.413Z,4.03
2023-05-08T22:21:41.781Z,5.60
2023-05-08T22:26:45.893Z,4.70
2023-05-08T22:31:48.590Z,6.10
2023-05-08T22:36:51.252Z,5.77
2023-05-08T22:41:55.391Z,9.85
2023-05-08T22:46:59.114Z,6.63
2023-05-08T22:52:01.760Z,4.57
2023-05-08T22:57:05.783Z,5.10
2023-05-08T23:02:08.561Z,4.13
2023-05-08T23:07:11.272Z,4.87
2023-05-08T23:12:15.247Z,6.57
2023-05-08T23:17:17.908Z,5.47
2023-05-08T23:22:20.642Z,4.93
2023-05-08T23:27:24.623Z,4.80
2023-05-08T23:32:27.500Z,8.40
2023-05-08T23:37:30.174Z,5.47
2023-05-08T23:42:34.213Z,6.67
2023-05-08T23:47:36.924Z,6.80
2023-05-08T23:52:39.585Z,5.57
2023-05-08T23:57:43.571Z,4.93
